Time;durP1;ratioP1;P1;durP2;ratioP2;P2;SDS_P1;SDS_P2;PMS_P1;PMS_P2;Temp;Humidity;BMP_temperature;BMP_pressure;BME280_temperature;BME280_humidity;BME280_pressure;Samples;Min_cycle;Max_cycle;Signal;HPM_P1;HPM_P2
2022/11/24 00:01:26;;;;;;;;;;;;;;;13.39;55.50;99375.34;5000824;28;6965;-74
2022/11/24 00:03:59;;;;;;;;;;;;;;;13.37;55.47;99383.03;5035380;28;6803;-74
2022/11/24 00:06:27;;;;;;;;;;;;;;;13.35;54.74;99374.41;5038949;28;8054;-75
2022/11/24 00:08:54;;;;;;;;;;;;;;;13.33;54.84;99376.09;5008105;28;6984;-74
2022/11/24 00:11:30;;;;;;;;;;;;;;;13.30;55.37;99389.75;4995182;28;6788;-74
2022/11/24 00:13:57;;;;;;;;;;;;;;;13.27;54.57;99388.81;5004156;28;6954;-74
2022/11/24 00:16:27;;;;;;;;;;;;;;;13.24;55.09;99389.63;5007093;28;7192;-74
2022/11/24 00:18:55;;;;;;;;;;;;;;;13.22;55.50;99393.88;5003127;28;7189;-74
2022/11/24 00:21:23;;;;;;;;;;;;;;;13.18;54.85;99400.66;5003362;28;6953;-74
2022/11/24 00:23:50;;;;;;;;;;;;;;;13.19;54.87;99404.09;5001705;28;7892;-75
2022/11/24 00:26:19;;;;;;;;;;;;;;;13.14;55.29;99396.28;4999622;28;6989;-74
2022/11/24 00:28:47;;;;;;;;;;;;;;;13.14;55.12;99403.13;5007014;28;6800;-74
2022/11/24 00:31:20;;;;;;;;;;;;;;;13.12;54.74;99397.94;5019636;28;7003;-74
2022/11/24 00:33:48;;;;;;;;;;;;;;;13.12;55.48;99392.78;5013886;28;6967;-74
2022/11/24 00:36:14;;;;;;;;;;;;;;;13.14;55.15;99393.72;5037814;28;6792;-75
2022/11/24 00:38:40;;;;;;;;;;;;;;;13.16;55.00;99402.31;5012633;28;9528;-74
2022/11/24 00:41:06;;;;;;;;;;;;;;;13.16;54.95;99389.47;5031931;28;6811;-74
2022/11/24 00:43:32;;;;;;;;;;;;;;;13.13;55.54;99398.81;4992695;28;6836;-74
2022/11/24 00:45:57;;;;;;;;;;;;;;;13.13;55.00;99394.53;5040354;28;6792;-74
2022/11/24 00:48:23;;;;;;;;;;;;;;;13.13;55.36;99402.25;5013616;28;6956;-74
2022/11/24 00:51:01;;;;;;;;;;;;;;;13.13;55.11;99402.25;5003467;28;7003;-74
2022/11/24 00:53:28;;;;;;;;;;;;;;;13.13;54.93;99393.66;5000279;28;6791;-74
2022/11/24 00:55:54;;;;;;;;;;;;;;;13.15;55.59;99404.84;5031125;28;6800;-74
2022/11/24 00:58:22;;;;;;;;;;;;;;;13.17;54.79;99406.63;5001665;28;6918;-74
2022/11/24 01:00:48;;;;;;;;;;;;;;;13.23;54.93;99405.00;5026773;28;7090;-74
2022/11/24 01:03:15;;;;;;;;;;;;;;;13.26;54.42;99420.53;5002677;28;6788;-75
2022/11/24 01:05:41;;;;;;;;;;;;;;;13.27;55.11;99422.28;4994184;28;8057;-75
2022/11/24 01:08:08;;;;;;;;;;;;;;;13.30;55.08;99412.03;5001122;28;7047;-74
2022/11/24 01:10:34;;;;;;;;;;;;;;;13.28;54.65;99419.75;4996377;28;7058;-75
2022/11/24 01:13:00;;;;;;;;;;;;;;;13.32;54.66;99423.22;4999094;28;7205;-74
2022/11/24 01:15:26;;;;;;;;;;;;;;;13.36;54.61;99417.31;4999468;28;6797;-75
2022/11/24 01:17:52;;;;;;;;;;;;;;;13.40;54.47;99416.53;5005357;28;6788;-75
2022/11/24 01:20:18;;;;;;;;;;;;;;;13.44;55.02;99415.81;5002894;28;6868;-75
2022/11/24 01:22:43;;;;;;;;;;;;;;;13.50;54.90;99424.47;5006555;28;6787;-75
2022/11/24 01:25:11;;;;;;;;;;;;;;;13.53;54.74;99427.13;5006542;28;7161;-76
2022/11/24 01:27:36;;;;;;;;;;;;;;;13.52;54.21;99423.69;5001882;28;6807;-75
2022/11/24 01:30:05;;;;;;;;;;;;;;;13.54;54.53;99416.84;5000477;28;6934;-74
2022/11/24 01:32:36;;;;;;;;;;;;;;;13.53;54.73;99422.00;4997681;28;6820;-75
2022/11/24 01:35:06;;;;;;;;;;;;;;;13.54;54.31;99423.72;5003474;28;7103;-74
2022/11/24 01:37:32;;;;;;;;;;;;;;;13.53;54.62;99429.72;5001416;28;7101;-75
2022/11/24 01:39:58;;;;;;;;;;;;;;;13.54;54.55;99428.88;5015688;28;7002;-75
2022/11/24 01:42:24;;;;;;;;;;;;;;;13.53;54.61;99433.13;4997667;28;7229;-75
2022/11/24 01:45:32;;;;;;;;;;;;;;;13.59;54.21;99425.53;5004356;28;7234;-75
2022/11/24 01:48:04;;;;;;;;;;;;;;;13.60;54.46;99439.28;4999578;28;6980;-74
2022/11/24 01:50:31;;;;;;;;;;;;;;;13.63;54.33;99431.63;4990430;28;6987;-74
2022/11/24 01:52:57;;;;;;;;;;;;;;;13.71;54.06;99424.94;5005007;28;7131;-75
2022/11/24 01:55:33;;;;;;;;;;;;;;;13.72;53.92;99431.81;5002033;28;7350;-74
2022/11/24 01:58:11;;;;;;;;;;;;;;;13.73;54.54;99410.38;5001846;28;7123;-75
2022/11/24 02:00:42;;;;;;;;;;;;;;;13.75;54.75;99431.88;4995191;28;7376;-74
2022/11/24 02:03:14;;;;;;;;;;;;;;;13.78;54.03;99431.06;5001626;28;7448;-74
2022/11/24 02:05:49;;;;;;;;;;;;;;;13.78;54.21;99430.19;5015895;28;7037;-74
2022/11/24 02:08:41;;;;;;;;;;;;;;;13.78;53.96;99423.34;4999790;28;7178;-74
2022/11/24 02:11:06;;;;;;;;;;;;;;;13.78;53.72;99432.75;5026684;28;7001;-74
2022/11/24 02:13:36;;;;;;;;;;;;;;;13.79;53.79;99430.22;5000830;28;7267;-75
2022/11/24 02:16:06;;;;;;;;;;;;;;;13.79;54.37;99439.63;5002195;28;6980;-74
2022/11/24 02:18:32;;;;;;;;;;;;;;;13.79;54.13;99444.78;5000657;28;6815;-75
2022/11/24 02:20:59;;;;;;;;;;;;;;;13.75;53.71;99444.75;5017442;28;7250;-75
2022/11/24 02:24:08;;;;;;;;;;;;;;;13.73;53.70;99449.00;5003410;28;7206;-75
2022/11/24 02:26:36;;;;;;;;;;;;;;;13.68;53.20;99447.16;4979815;28;6893;-75
2022/11/24 02:29:02;;;;;;;;;;;;;;;13.64;53.63;99448.81;5002536;28;8342;-75
2022/11/24 02:31:27;;;;;;;;;;;;;;;13.60;53.40;99462.44;5000933;28;6784;-74
2022/11/24 02:33:54;;;;;;;;;;;;;;;13.54;53.20;99454.63;5000144;28;7187;-74
2022/11/24 02:36:20;;;;;;;;;;;;;;;13.50;53.81;99458.81;4989834;28;7064;-74
2022/11/24 02:38:46;;;;;;;;;;;;;;;13.44;53.83;99457.00;4998824;28;6784;-74
2022/11/24 02:41:21;;;;;;;;;;;;;;;13.41;53.46;99467.16;5001784;28;6950;-75
2022/11/24 02:44:00;;;;;;;;;;;;;;;13.36;53.98;99463.66;4989671;28;7187;-74
2022/11/24 02:46:26;;;;;;;;;;;;;;;13.33;54.08;99469.59;5021110;28;6998;-75
2022/11/24 02:48:51;;;;;;;;;;;;;;;13.31;54.17;99460.09;5015735;28;6787;-74
2022/11/24 02:51:18;;;;;;;;;;;;;;;13.29;54.10;99462.66;5003159;28;6776;-75
2022/11/24 02:53:43;;;;;;;;;;;;;;;13.29;53.84;99472.06;5001057;28;7211;-75
2022/11/24 02:56:09;;;;;;;;;;;;;;;13.29;54.69;99472.94;5012235;28;7295;-75
2022/11/24 02:58:35;;;;;;;;;;;;;;;13.29;54.79;99462.66;5034908;28;6775;-75
2022/11/24 03:01:00;;;;;;;;;;;;;;;13.33;55.00;99469.59;4978609;28;7146;-74
2022/11/24 03:03:26;;;;;;;;;;;;;;;13.39;54.35;99468.00;4985346;28;8807;-75
2022/11/24 03:05:52;;;;;;;;;;;;;;;13.42;54.08;99462.91;4982020;28;8060;-74
2022/11/24 03:08:18;;;;;;;;;;;;;;;13.46;54.49;99478.47;4988325;28;6796;-74
2022/11/24 03:10:44;;;;;;;;;;;;;;;13.52;54.66;99484.56;4998030;28;7982;-74
2022/11/24 03:13:09;;;;;;;;;;;;;;;13.58;54.92;99477.00;4991477;28;10027;-74
2022/11/24 03:15:36;;;;;;;;;;;;;;;13.63;54.60;99492.53;5005258;28;7133;-74
2022/11/24 03:18:02;;;;;;;;;;;;;;;13.64;54.21;99490.00;4993892;28;6983;-74
2022/11/24 03:20:28;;;;;;;;;;;;;;;13.69;54.09;99492.69;5001904;28;7154;-74
2022/11/24 03:22:54;;;;;;;;;;;;;;;13.73;54.09;99495.34;4999312;28;7721;-74
2022/11/24 03:25:19;;;;;;;;;;;;;;;13.79;54.37;99498.88;4985557;28;7852;-74
2022/11/24 03:27:45;;;;;;;;;;;;;;;13.82;54.62;99504.09;4997738;28;6784;-74
2022/11/24 03:30:12;;;;;;;;;;;;;;;13.85;54.32;99517.88;5034364;28;6792;-73
2022/11/24 03:32:37;;;;;;;;;;;;;;;13.88;54.34;99514.50;5000645;28;6863;-72
2022/11/24 03:35:04;;;;;;;;;;;;;;;13.89;54.60;99521.41;5033349;28;7207;-73
2022/11/24 03:37:29;;;;;;;;;;;;;;;13.91;54.16;99519.75;5001061;28;7712;-72
2022/11/24 03:39:55;;;;;;;;;;;;;;;13.96;53.48;99520.69;5002990;28;7097;-73
2022/11/24 03:42:21;;;;;;;;;;;;;;;13.99;54.22;99519.91;5002619;28;7178;-73
2022/11/24 03:44:47;;;;;;;;;;;;;;;13.97;53.36;99525.00;5031558;28;7277;-71
2022/11/24 03:47:13;;;;;;;;;;;;;;;13.96;52.99;99528.41;4995761;28;6991;-72
2022/11/24 03:49:40;;;;;;;;;;;;;;;13.96;53.34;99532.72;5032664;28;8551;-72
2022/11/24 03:52:07;;;;;;;;;;;;;;;13.93;53.61;99538.66;5003708;28;6799;-73
2022/11/24 03:54:33;;;;;;;;;;;;;;;13.96;53.30;99531.00;5001463;28;6804;-71
2022/11/24 03:56:59;;;;;;;;;;;;;;;14.00;53.46;99535.38;4995573;28;6772;-73
2022/11/24 03:59:24;;;;;;;;;;;;;;;14.01;53.49;99531.97;4999603;28;7273;-74
2022/11/24 04:01:50;;;;;;;;;;;;;;;14.03;53.47;99529.41;5010029;28;10224;-74
2022/11/24 04:04:16;;;;;;;;;;;;;;;14.08;53.18;99537.22;4998772;28;6792;-73
2022/11/24 04:06:41;;;;;;;;;;;;;;;14.10;53.03;99536.44;4999201;28;7214;-73
2022/11/24 04:09:07;;;;;;;;;;;;;;;14.11;53.19;99540.75;5016437;28;7017;-74
2022/11/24 04:14:18;;;;;;;;;;;;;;;14.13;53.08;99530.47;5004488;28;6812;-73
2022/11/24 04:16:43;;;;;;;;;;;;;;;14.14;53.03;99535.63;5004432;28;7189;-74
2022/11/24 04:19:09;;;;;;;;;;;;;;;14.15;53.07;99544.25;5005415;28;6776;-74
2022/11/24 04:21:35;;;;;;;;;;;;;;;14.19;53.38;99551.19;5002120;28;6938;-74
2022/11/24 04:24:00;;;;;;;;;;;;;;;14.25;52.63;99545.31;5004289;28;6776;-74
2022/11/24 04:26:26;;;;;;;;;;;;;;;14.26;53.15;99536.75;4996691;28;7437;-73
2022/11/24 04:28:52;;;;;;;;;;;;;;;14.21;53.09;99554.69;4994753;28;6921;-74
2022/11/24 04:31:18;;;;;;;;;;;;;;;14.14;53.42;99552.81;5004516;28;6780;-74
2022/11/24 04:33:43;;;;;;;;;;;;;;;14.06;52.87;99555.25;5001189;28;7252;-74
2022/11/24 04:36:09;;;;;;;;;;;;;;;13.93;53.50;99556.72;5006253;28;6801;-74
2022/11/24 04:38:35;;;;;;;;;;;;;;;13.82;53.92;99555.63;4998627;28;6771;-74
2022/11/24 04:41:04;;;;;;;;;;;;;;;13.72;54.26;99560.56;4994967;28;6914;-75
2022/11/24 04:43:31;;;;;;;;;;;;;;;13.63;53.88;99565.50;4999387;28;7298;-74
2022/11/24 04:46:00;;;;;;;;;;;;;;;13.56;54.20;99563.63;5006324;28;7548;-74
2022/11/24 04:48:26;;;;;;;;;;;;;;;13.46;55.12;99555.69;5006901;28;9023;-74
2022/11/24 04:50:52;;;;;;;;;;;;;;;13.39;54.91;99561.50;5035280;28;7000;-74
2022/11/24 04:53:18;;;;;;;;;;;;;;;13.34;54.86;99556.25;5004903;28;7690;-74
2022/11/24 04:55:43;;;;;;;;;;;;;;;13.32;55.74;99564.75;5018229;28;6980;-74
2022/11/24 04:58:10;;;;;;;;;;;;;;;13.31;54.75;99568.16;5002684;28;7912;-74
2022/11/24 05:00:37;;;;;;;;;;;;;;;13.27;55.61;99561.22;5000502;28;6926;-74
2022/11/24 05:03:04;;;;;;;;;;;;;;;13.26;55.40;99568.06;4993747;28;6923;-74
2022/11/24 05:05:30;;;;;;;;;;;;;;;13.27;55.35;99567.22;4989974;28;9700;-73
2022/11/24 05:07:59;;;;;;;;;;;;;;;13.28;54.99;99579.28;4996021;28;6952;-74
2022/11/24 05:10:33;;;;;;;;;;;;;;;13.29;55.21;99585.28;4997877;28;6784;-74
2022/11/24 05:13:05;;;;;;;;;;;;;;;13.31;55.67;99584.50;4995706;28;6816;-74
2022/11/24 05:15:31;;;;;;;;;;;;;;;13.32;55.82;99595.63;4998063;28;7001;-74
2022/11/24 05:17:57;;;;;;;;;;;;;;;13.34;55.45;99601.72;5004717;28;6788;-74
2022/11/24 05:20:24;;;;;;;;;;;;;;;13.37;55.58;99599.22;5002869;28;7189;-74
2022/11/24 05:22:50;;;;;;;;;;;;;;;13.37;55.22;99603.47;5002752;28;7242;-74
2022/11/24 05:25:16;;;;;;;;;;;;;;;13.34;55.23;99600.00;5005500;28;7154;-74
2022/11/24 05:27:41;;;;;;;;;;;;;;;13.37;54.91;99600.91;5022249;28;7505;-74
2022/11/24 05:30:08;;;;;;;;;;;;;;;13.40;55.40;99608.72;5001650;28;6999;-74
2022/11/24 05:32:36;;;;;;;;;;;;;;;13.41;55.02;99606.16;5012659;28;6974;-74
2022/11/24 05:35:03;;;;;;;;;;;;;;;13.43;54.46;99608.78;4999644;28;6804;-74
2022/11/24 05:37:29;;;;;;;;;;;;;;;13.41;54.82;99624.16;5003239;28;6867;-74
2022/11/24 05:39:55;;;;;;;;;;;;;;;13.40;55.01;99619.88;5001817;28;6792;-74
2022/11/24 05:42:39;;;;;;;;;;;;;;;13.38;54.10;99618.09;5004062;28;7266;-74
2022/11/24 05:45:17;;;;;;;;;;;;;;;13.34;54.71;99618.00;5024721;28;7418;-74
2022/11/24 05:47:43;;;;;;;;;;;;;;;13.30;53.66;99630.78;4998015;28;6820;-74
2022/11/24 05:50:12;;;;;;;;;;;;;;;13.26;53.51;99632.41;5029846;28;6971;-74
2022/11/24 05:52:38;;;;;;;;;;;;;;;13.25;54.07;99629.81;5036065;28;7131;-74
2022/11/24 05:55:06;;;;;;;;;;;;;;;13.16;53.35;99621.03;5004964;28;7175;-74
2022/11/24 05:57:32;;;;;;;;;;;;;;;13.13;52.78;99630.38;5005683;28;6893;-74
2022/11/24 05:59:58;;;;;;;;;;;;;;;13.12;52.82;99637.19;5001174;28;7106;-74
2022/11/24 06:02:24;;;;;;;;;;;;;;;13.11;52.72;99639.75;5002610;28;6775;-74
2022/11/24 06:04:49;;;;;;;;;;;;;;;13.05;52.92;99641.31;5007391;28;6856;-74
2022/11/24 06:07:16;;;;;;;;;;;;;;;13.01;52.74;99634.38;5004163;28;8512;-74
2022/11/24 06:09:42;;;;;;;;;;;;;;;12.95;53.48;99641.91;4992151;28;6796;-74
2022/11/24 06:12:10;;;;;;;;;;;;;;;12.86;52.86;99652.84;5004075;28;6803;-74
2022/11/24 06:14:37;;;;;;;;;;;;;;;12.78;53.16;99655.19;5005837;28;7363;-74
2022/11/24 06:17:03;;;;;;;;;;;;;;;12.75;53.38;99654.25;5005793;28;6808;-74
2022/11/24 06:19:29;;;;;;;;;;;;;;;12.69;53.18;99646.38;5030792;28;7421;-74
2022/11/24 06:21:56;;;;;;;;;;;;;;;12.64;53.82;99657.38;5006998;28;6784;-74
2022/11/24 06:24:22;;;;;;;;;;;;;;;12.61;53.15;99652.16;4998354;28;7242;-74
2022/11/24 06:26:48;;;;;;;;;;;;;;;12.55;54.02;99662.25;5001812;28;6980;-74
2022/11/24 06:29:13;;;;;;;;;;;;;;;12.51;53.66;99665.59;4999848;28;6860;-74
2022/11/24 06:31:39;;;;;;;;;;;;;;;12.45;53.78;99656.00;4996861;28;7161;-74
2022/11/24 06:34:06;;;;;;;;;;;;;;;12.44;53.93;99668.81;5003449;28;6864;-74
2022/11/24 06:36:32;;;;;;;;;;;;;;;12.39;53.57;99676.38;5003051;28;6959;-74
2022/11/24 06:39:02;;;;;;;;;;;;;;;12.38;54.13;99682.34;5001796;28;6768;-74
2022/11/24 06:41:27;;;;;;;;;;;;;;;12.33;54.22;99692.50;5002524;28;7190;-74
2022/11/24 06:43:53;;;;;;;;;;;;;;;12.29;54.57;99700.94;5001178;28;6777;-74
2022/11/24 06:46:19;;;;;;;;;;;;;;;12.28;54.13;99704.34;5037347;28;6792;-74
2022/11/24 06:48:46;;;;;;;;;;;;;;;12.28;54.23;99709.50;4984028;28;7246;-74
2022/11/24 06:51:12;;;;;;;;;;;;;;;12.29;54.53;99711.22;5002434;28;6974;-74
2022/11/24 06:53:39;;;;;;;;;;;;;;;12.30;53.77;99718.09;4999867;28;7010;-74
2022/11/24 06:56:09;;;;;;;;;;;;;;;12.29;53.82;99721.50;4999730;28;6860;-74
2022/11/24 06:58:40;;;;;;;;;;;;;;;12.29;54.04;99716.38;5029819;28;6912;-74
2022/11/24 07:01:06;;;;;;;;;;;;;;;12.30;54.30;99730.06;5028726;28;6812;-74
2022/11/24 07:03:32;;;;;;;;;;;;;;;12.31;54.15;99726.66;5033517;28;7271;-74
2022/11/24 07:05:58;;;;;;;;;;;;;;;12.30;54.57;99742.91;5002805;28;7134;-74
2022/11/24 07:08:25;;;;;;;;;;;;;;;12.31;54.65;99742.09;4996153;28;7305;-74
2022/11/24 07:10:53;;;;;;;;;;;;;;;12.33;54.64;99750.75;4993538;28;8357;-74
2022/11/24 07:13:19;;;;;;;;;;;;;;;12.35;54.28;99756.78;5039167;28;6968;-74
2022/11/24 07:15:46;;;;;;;;;;;;;;;12.34;54.81;99765.34;5014846;28;7988;-74
2022/11/24 07:18:11;;;;;;;;;;;;;;;12.35;54.54;99772.22;5001336;28;6852;-74
2022/11/24 07:20:37;;;;;;;;;;;;;;;12.35;55.07;99767.91;5005850;28;6788;-74
2022/11/24 07:23:02;;;;;;;;;;;;;;;12.37;55.35;99780.84;4998452;28;6826;-74
2022/11/24 07:25:28;;;;;;;;;;;;;;;12.42;55.41;99779.28;5005283;28;7394;-74
2022/11/24 07:27:58;;;;;;;;;;;;;;;12.45;55.54;99783.63;4992842;28;7199;-74
2022/11/24 07:30:25;;;;;;;;;;;;;;;12.55;55.54;99795.06;4979975;28;7005;-74
2022/11/24 07:32:58;;;;;;;;;;;;;;;12.65;55.17;99802.22;4990488;28;7181;-74
2022/11/24 07:35:24;;;;;;;;;;;;;;;12.74;55.17;99806.75;4998699;28;6796;-74
2022/11/24 07:37:53;;;;;;;;;;;;;;;12.81;55.65;99808.69;4986530;28;6983;-74
2022/11/24 07:40:18;;;;;;;;;;;;;;;12.88;55.76;99813.19;5004383;28;6997;-74
2022/11/24 07:42:44;;;;;;;;;;;;;;;12.96;54.95;99808.25;5001808;28;6796;-74
2022/11/24 07:45:10;;;;;;;;;;;;;;;13.03;55.19;99812.78;5000383;28;8239;-74
2022/11/24 07:47:39;;;;;;;;;;;;;;;13.07;55.07;99826.59;5027115;28;6937;-74
2022/11/24 07:50:08;;;;;;;;;;;;;;;13.08;54.97;99830.91;5002861;28;6792;-74
2022/11/24 07:52:34;;;;;;;;;;;;;;;13.06;54.49;99832.56;5032434;28;7002;-74
2022/11/24 07:55:00;;;;;;;;;;;;;;;13.07;54.34;99836.88;5007440;28;6788;-74
2022/11/24 07:57:27;;;;;;;;;;;;;;;13.10;55.16;99846.41;4986749;28;7148;-73
2022/11/24 07:59:55;;;;;;;;;;;;;;;13.13;54.16;99857.63;5003319;28;6800;-74
2022/11/24 08:02:21;;;;;;;;;;;;;;;13.15;55.25;99860.25;5011674;28;6988;-74
2022/11/24 08:04:47;;;;;;;;;;;;;;;13.16;54.85;99862.88;5004209;28;6955;-74
2022/11/24 08:07:12;;;;;;;;;;;;;;;13.17;54.45;99868.88;5013359;28;6960;-74
2022/11/24 08:09:38;;;;;;;;;;;;;;;13.17;53.86;99864.63;5003136;28;6768;-74
2022/11/24 08:12:04;;;;;;;;;;;;;;;13.16;54.70;99862.88;5005749;28;6844;-74
2022/11/24 08:14:29;;;;;;;;;;;;;;;13.16;54.20;99878.31;5005533;28;7139;-74
2022/11/24 08:16:56;;;;;;;;;;;;;;;13.14;54.13;99877.41;5005866;28;7374;-74
2022/11/24 08:19:22;;;;;;;;;;;;;;;13.14;55.04;99898.00;4998524;28;7181;-74
2022/11/24 08:21:48;;;;;;;;;;;;;;;13.16;54.95;99896.31;5006763;28;6767;-74
2022/11/24 08:24:14;;;;;;;;;;;;;;;13.17;54.94;99895.50;5036328;28;7204;-74
2022/11/24 08:26:40;;;;;;;;;;;;;;;13.17;54.90;99905.78;5004319;28;6921;-74
2022/11/24 08:29:06;;;;;;;;;;;;;;;13.20;54.80;99910.16;4992341;28;7201;-74
2022/11/24 08:31:33;;;;;;;;;;;;;;;13.26;54.79;99915.47;5040558;28;6941;-74
2022/11/24 08:34:02;;;;;;;;;;;;;;;13.36;54.79;99916.63;5008934;28;6943;-74
2022/11/24 08:36:27;;;;;;;;;;;;;;;13.45;54.27;99921.19;5010634;28;7262;-74
2022/11/24 08:38:58;;;;;;;;;;;;;;;13.50;54.32;99926.47;5005805;28;6843;-74
2022/11/24 08:41:26;;;;;;;;;;;;;;;13.55;54.74;99917.19;5006119;28;6865;-74
2022/11/24 08:43:53;;;;;;;;;;;;;;;13.59;54.30;99929.28;5008232;28;6839;-74
2022/11/24 08:46:19;;;;;;;;;;;;;;;13.62;54.14;99934.56;5012575;28;7241;-74
2022/11/24 08:48:53;;;;;;;;;;;;;;;13.67;53.85;99937.25;5018707;28;6992;-74
2022/11/24 08:51:24;;;;;;;;;;;;;;;13.70;54.44;99952.78;5002056;28;6988;-74
2022/11/24 08:53:58;;;;;;;;;;;;;;;13.71;54.24;99959.69;4983052;28;7187;-73
2022/11/24 08:56:26;;;;;;;;;;;;;;;13.68;53.29;99963.03;4998671;28;6804;-74
2022/11/24 08:58:53;;;;;;;;;;;;;;;13.66;53.80;99956.97;4995316;28;7701;-74
2022/11/24 09:01:18;;;;;;;;;;;;;;;13.62;53.41;99960.31;5017574;28;7015;-74
2022/11/24 09:03:48;;;;;;;;;;;;;;;13.60;54.31;99961.94;5001164;28;6836;-74
2022/11/24 09:06:15;;;;;;;;;;;;;;;13.59;54.11;99970.50;4995590;28;6785;-74
2022/11/24 09:08:41;;;;;;;;;;;;;;;13.59;53.38;99967.91;5007881;28;6832;-74
2022/11/24 09:11:11;;;;;;;;;;;;;;;13.58;53.18;99967.06;5006390;28;6911;-73
2022/11/24 09:13:39;;;;;;;;;;;;;;;13.61;54.04;99974.88;5004530;28;6788;-74
2022/11/24 09:16:08;;;;;;;;;;;;;;;13.64;54.01;99973.19;5001672;28;6796;-74
2022/11/24 09:18:35;;;;;;;;;;;;;;;13.65;53.99;99970.69;5004744;28;6868;-73
2022/11/24 09:21:14;;;;;;;;;;;;;;;13.66;54.14;99976.69;5003441;28;7028;-74
2022/11/24 09:23:41;;;;;;;;;;;;;;;13.67;54.05;99974.16;5000142;28;6795;-74
2022/11/24 09:26:16;;;;;;;;;;;;;;;13.69;53.73;99976.78;5002394;28;6983;-74
2022/11/24 09:28:43;;;;;;;;;;;;;;;13.73;53.37;99984.66;4986435;28;6990;-73
2022/11/24 09:31:12;;;;;;;;;;;;;;;13.76;53.58;99989.00;4981584;28;6993;-73
2022/11/24 09:33:39;;;;;;;;;;;;;;;13.80;54.13;99984.81;4984809;28;7007;-74
2022/11/24 09:36:05;;;;;;;;;;;;;;;13.82;53.73;99994.34;4993775;28;6959;-74
2022/11/24 09:38:32;;;;;;;;;;;;;;;13.88;54.13;99998.78;4999816;28;6979;-73
2022/11/24 09:41:48;;;;;;;;;;;;;;;13.94;53.13;100001.53;4994980;28;6993;-74
2022/11/24 09:44:52;;;;;;;;;;;;;;;13.98;53.12;100016.25;5001203;28;6820;-74
2022/11/24 09:47:49;;;;;;;;;;;;;;;14.03;53.74;100008.63;4998686;28;6884;-74
2022/11/24 09:50:31;;;;;;;;;;;;;;;14.09;53.72;100013.97;5001885;28;6999;-74
2022/11/24 09:53:36;;;;;;;;;;;;;;;14.21;53.35;100016.00;5009298;28;6803;-73
2022/11/24 09:56:20;;;;;;;;;;;;;;;14.51;53.92;100020.22;5034698;28;7295;-74
2022/11/24 09:59:22;;;;;;;;;;;;;;;15.00;53.13;100024.91;5004462;28;6832;-74
2022/11/24 10:01:50;;;;;;;;;;;;;;;15.65;51.92;100023.78;4997227;28;7257;-74
2022/11/24 10:04:29;;;;;;;;;;;;;;;16.29;50.96;100021.56;5029776;28;6799;-74
2022/11/24 10:07:15;;;;;;;;;;;;;;;16.87;49.41;100023.44;4998580;28;7105;-74
2022/11/24 10:09:54;;;;;;;;;;;;;;;17.33;48.50;100013.81;5004168;28;6996;-74
2022/11/24 10:13:04;;;;;;;;;;;;;;;17.74;47.48;100011.72;4996496;28;7166;-74
2022/11/24 10:15:52;;;;;;;;;;;;;;;18.09;47.56;100024.28;5029160;28;6888;-74
2022/11/24 10:18:55;;;;;;;;;;;;;;;18.52;46.42;100026.44;4999661;28;6864;-74
2022/11/24 10:21:56;;;;;;;;;;;;;;;18.99;45.97;100026.84;5025152;28;8088;-74
2022/11/24 10:24:49;;;;;;;;;;;;;;;19.40;45.27;100026.25;5029673;28;6995;-74
2022/11/24 10:27:22;;;;;;;;;;;;;;;19.70;44.20;100021.19;5002115;28;7314;-74
2022/11/24 10:29:51;;;;;;;;;;;;;;;19.83;43.55;100025.59;5015553;28;7069;-74
2022/11/24 10:32:22;;;;;;;;;;;;;;;20.00;43.00;100037.84;5032364;28;7038;-74
2022/11/24 10:34:49;;;;;;;;;;;;;;;20.22;42.54;100032.69;4997098;28;6812;-74
2022/11/24 10:37:41;;;;;;;;;;;;;;;20.35;42.19;100034.44;4998088;28;6852;-74
2022/11/24 10:40:25;;;;;;;;;;;;;;;20.52;41.64;100031.00;4992966;28;6816;-74
2022/11/24 10:42:51;;;;;;;;;;;;;;;20.64;41.39;100036.19;5000687;28;6880;-74
2022/11/24 10:45:21;;;;;;;;;;;;;;;20.87;41.00;100038.00;4998881;28;8334;-74
2022/11/24 10:47:48;;;;;;;;;;;;;;;21.09;40.79;100037.97;4999987;28;7844;-74
2022/11/24 10:50:24;;;;;;;;;;;;;;;21.36;40.29;100041.41;4998521;28;6776;-74
2022/11/24 10:53:13;;;;;;;;;;;;;;;21.65;39.70;100038.69;5000829;28;7165;-74
2022/11/24 10:55:54;;;;;;;;;;;;;;;21.82;39.29;100039.53;4999459;28;6863;-74
2022/11/24 10:58:36;;;;;;;;;;;;;;;21.96;39.20;100048.19;5002604;28;7689;-74
2022/11/24 11:01:14;;;;;;;;;;;;;;;22.06;39.07;100046.38;4999860;28;7233;-74
2022/11/24 11:03:57;;;;;;;;;;;;;;;22.09;38.84;100053.31;4999315;28;7306;-74
2022/11/24 11:06:31;;;;;;;;;;;;;;;22.06;38.16;100055.09;4989517;28;7223;-74
2022/11/24 11:09:06;;;;;;;;;;;;;;;22.06;38.15;100047.25;4991827;28;7061;-74
2022/11/24 11:11:38;;;;;;;;;;;;;;;21.76;37.94;100051.75;5004134;28;7229;-74
2022/11/24 11:14:11;;;;;;;;;;;;;;;21.36;38.43;100060.50;5003278;28;6961;-74
2022/11/24 11:16:44;;;;;;;;;;;;;;;21.16;38.60;100052.72;5001869;28;6811;-74
2022/11/24 11:19:35;;;;;;;;;;;;;;;20.94;39.16;100057.09;4999791;28;6803;-74
2022/11/24 11:22:18;;;;;;;;;;;;;;;20.84;39.19;100058.81;5003300;28;7267;-74
2022/11/24 11:24:47;;;;;;;;;;;;;;;21.02;38.97;100059.69;5022095;28;7062;-74
2022/11/24 11:27:25;;;;;;;;;;;;;;;21.32;38.78;100048.38;5001768;28;7928;-75
2022/11/24 11:29:51;;;;;;;;;;;;;;;21.66;38.51;100052.63;5001835;28;7288;-74
2022/11/24 11:32:24;;;;;;;;;;;;;;;22.01;38.01;100048.16;5035739;28;6831;-74
2022/11/24 11:34:54;;;;;;;;;;;;;;;22.33;37.62;100045.38;5031309;28;6827;-74
2022/11/24 11:37:29;;;;;;;;;;;;;;;22.59;36.96;100048.72;5035886;28;6795;-74
2022/11/24 11:39:57;;;;;;;;;;;;;;;22.67;36.54;100040.81;5021549;28;6995;-74
2022/11/24 11:42:31;;;;;;;;;;;;;;;22.67;36.92;100048.66;5012125;28;7872;-74
2022/11/24 11:45:27;;;;;;;;;;;;;;;22.56;36.19;100036.53;5012885;28;6924;-74
2022/11/24 11:48:06;;;;;;;;;;;;;;;;;;5030890;28;6887;-74
2022/11/24 11:50:57;;;;;;;;;;;;;;;22.44;35.96;100052.25;5002989;28;7238;-74
2022/11/24 11:53:51;;;;;;;;;;;;;;;22.52;36.33;100050.50;5031001;28;6879;-74
2022/11/24 11:56:29;;;;;;;;;;;;;;;22.53;36.24;100033.97;5039944;28;6939;-74
2022/11/24 11:59:37;;;;;;;;;;;;;;;22.02;36.44;100042.06;5040632;28;6861;-74
2022/11/24 12:02:49;;;;;;;;;;;;;;;20.96;37.38;100044.91;4993413;28;6823;-74
2022/11/24 12:05:23;;;;;;;;;;;;;;;19.99;38.98;100051.69;5028097;28;6887;-74
2022/11/24 12:08:10;;;;;;;;;;;;;;;19.25;40.07;100058.22;5009455;28;6980;-74
2022/11/24 12:10:50;;;;;;;;;;;;;;;18.67;40.89;100058.56;5032920;28;7195;-74
2022/11/24 12:14:13;;;;;;;;;;;;;;;18.16;41.10;100062.41;4995324;28;6808;-74
2022/11/24 12:17:06;;;;;;;;;;;;;;;17.75;41.65;100057.53;5014578;28;6970;-73
2022/11/24 12:20:06;;;;;;;;;;;;;;;17.46;42.46;100060.59;5034475;28;7137;-74
2022/11/24 12:23:02;;;;;;;;;;;;;;;17.20;43.22;100064.53;5031478;28;6906;-74
2022/11/24 12:26:04;;;;;;;;;;;;;;;17.00;43.62;100064.25;5005042;28;6985;-74
2022/11/24 12:29:06;;;;;;;;;;;;;;;16.87;44.18;100062.25;4995899;28;6824;-73
2022/11/24 12:32:01;;;;;;;;;;;;;;;16.75;44.51;100058.63;4998125;28;7042;-74
2022/11/24 12:34:54;;;;;;;;;;;;;;;16.69;44.35;100062.81;5008364;28;6807;-74
2022/11/24 12:37:39;;;;;;;;;;;;;;;16.62;44.69;100061.84;4998113;28;6891;-74
2022/11/24 12:40:29;;;;;;;;;;;;;;;16.57;44.69;100063.47;5001721;28;8028;-74
2022/11/24 12:43:27;;;;;;;;;;;;;;;16.52;45.04;100065.97;4992319;28;7011;-74
2022/11/24 12:46:24;;;;;;;;;;;;;;;16.50;44.80;100068.50;4998071;28;6816;-74
2022/11/24 12:49:22;;;;;;;;;;;;;;;16.46;45.23;100055.50;5001034;28;6808;-74
2022/11/24 12:52:25;;;;;;;;;;;;;;;16.45;45.35;100058.94;4999217;28;7119;-74
2022/11/24 12:54:53;;;;;;;;;;;;;;;16.45;45.22;100067.56;4998302;28;7254;-74
2022/11/24 12:57:56;;;;;;;;;;;;;;;16.47;45.28;100071.06;5003686;28;6787;-74
2022/11/24 13:00:59;;;;;;;;;;;;;;;16.43;45.05;100071.84;4992312;28;7302;-74
2022/11/24 13:04:13;;;;;;;;;;;;;;;16.39;45.51;100070.03;5033342;28;7264;-74
2022/11/24 13:06:53;;;;;;;;;;;;;;;16.37;45.24;100074.31;5033169;28;7030;-74
2022/11/24 13:09:19;;;;;;;;;;;;;;;16.37;45.36;100067.44;4994380;28;7289;-74
2022/11/24 13:11:48;;;;;;;;;;;;;;;16.40;45.35;100074.38;4997990;28;8015;-74
2022/11/24 13:14:21;;;;;;;;;;;;;;;16.43;45.84;100071.84;4997088;28;6811;-74
2022/11/24 13:16:57;;;;;;;;;;;;;;;16.45;45.37;100075.34;4990123;28;7032;-74
2022/11/24 13:19:33;;;;;;;;;;;;;;;16.45;45.61;100067.56;5000474;28;7040;-74
2022/11/24 13:22:24;;;;;;;;;;;;;;;16.46;45.63;100065.84;5002661;28;7313;-74
2022/11/24 13:25:27;;;;;;;;;;;;;;;16.46;45.97;100069.31;5031469;28;7082;-74